Time;durP1;ratioP1;P1;durP2;ratioP2;P2;SDS_P1;SDS_P2;PMS_P1;PMS_P2;Temp;Humidity;BMP_temperature;BMP_pressure;BME280_temperature;BME280_humidity;BME280_pressure;Samples;Min_cycle;Max_cycle;Signal;HPM_P1;HPM_P2
2022/08/20 00:01:06;;;;;;;7.37;6.77;;;20.60;99.90;;;;;;5092261;28;20795;-94
2022/08/20 00:03:35;;;;;;;9.07;8.47;;;20.40;99.90;;;;;;5075437;28;20631;-95
2022/08/20 00:06:05;;;;;;;6.80;6.10;;;20.40;99.90;;;;;;5090446;28;20747;-94
2022/08/20 00:08:33;;;;;;;6.07;5.57;;;20.20;99.90;;;;;;5096591;28;21241;-93
2022/08/20 00:11:01;;;;;;;7.80;4.80;;;20.30;99.90;;;;;;5101524;28;20659;-93
2022/08/20 00:13:31;;;;;;;5.40;4.90;;;20.20;99.90;;;;;;5101121;28;20620;-94
2022/08/20 00:15:58;;;;;;;6.33;5.70;;;20.00;99.90;;;;;;5100583;28;21243;-94
2022/08/20 00:18:26;;;;;;;8.73;4.30;;;20.00;99.90;;;;;;5099957;28;20616;-94
2022/08/20 00:20:56;;;;;;;6.43;5.93;;;19.90;99.90;;;;;;5098162;28;20643;-95
2022/08/20 00:23:24;;;;;;;7.00;6.60;;;20.00;99.90;;;;;;5099957;28;20775;-93
2022/08/20 00:25:57;;;;;;;6.83;6.43;;;20.00;99.90;;;;;;5097800;28;20643;-93
2022/08/20 00:28:24;;;;;;;5.90;5.30;;;19.90;99.90;;;;;;5100362;28;20671;-94
2022/08/20 00:30:51;;;;;;;5.33;5.03;;;20.10;99.90;;;;;;5101184;28;20634;-93
2022/08/20 00:33:20;;;;;;;4.50;4.20;;;20.20;99.90;;;;;;5100961;28;20670;-95
2022/08/20 00:35:50;;;;;;;5.00;3.00;;;20.20;99.90;;;;;;5100320;28;20687;-94
2022/08/20 00:38:18;;;;;;;3.53;3.23;;;20.00;99.90;;;;;;5098427;28;20623;-94
2022/08/20 00:40:50;;;;;;;3.90;3.60;;;19.90;99.90;;;;;;5097497;28;20616;-93
2022/08/20 00:43:35;;;;;;;4.67;4.27;;;19.70;99.90;;;;;;5096180;28;20631;-92
2022/08/20 00:46:04;;;;;;;4.47;4.10;;;19.80;99.90;;;;;;5094548;28;20666;-93
2022/08/20 00:48:33;;;;;;;4.27;3.97;;;19.70;99.90;;;;;;5100472;28;20659;-92
2022/08/20 00:51:05;;;;;;;4.47;4.07;;;19.70;99.90;;;;;;5093789;28;20636;-95
2022/08/20 00:53:33;;;;;;;4.97;4.30;;;19.80;99.90;;;;;;5090634;28;21213;-95
2022/08/20 00:56:01;;;;;;;4.80;2.83;;;19.70;99.90;;;;;;5100091;28;20680;-95
2022/08/20 00:58:37;;;;;;;3.97;2.53;;;19.70;99.90;;;;;;5087195;28;20727;-93
2022/08/20 01:01:05;;;;;;;3.23;2.67;;;19.60;99.90;;;;;;5087631;28;20632;-95
2022/08/20 01:03:33;;;;;;;3.70;3.33;;;19.40;99.90;;;;;;5090935;28;21200;-94
2022/08/20 01:06:00;;;;;;;4.67;4.23;;;19.30;99.90;;;;;;5070556;28;20683;-94
2022/08/20 01:08:28;;;;;;;4.70;4.40;;;19.30;99.90;;;;;;5088293;28;20664;-94
2022/08/20 01:11:06;;;;;;;3.70;3.40;;;19.40;99.90;;;;;;5090177;28;20631;-93
2022/08/20 01:13:37;;;;;;;4.40;3.90;;;19.30;99.90;;;;;;5087926;28;20655;-93
2022/08/20 01:16:08;;;;;;;4.63;4.20;;;19.40;99.90;;;;;;5087007;28;20647;-94
2022/08/20 01:18:37;;;;;;;3.90;3.57;;;19.40;99.90;;;;;;5088000;28;20673;-94
2022/08/20 01:21:07;;;;;;;4.80;4.40;;;19.60;99.90;;;;;;5090564;28;20977;-94
2022/08/20 01:23:43;;;;;;;3.43;3.20;;;19.80;99.90;;;;;;5086037;28;20743;-94
2022/08/20 01:26:16;;;;;;;3.90;3.60;;;19.80;99.90;;;;;;5087727;28;20644;-93
2022/08/20 01:28:47;;;;;;;3.73;3.43;;;20.10;99.90;;;;;;5084116;28;20647;-94
2022/08/20 01:31:17;;;;;;;2.60;2.37;;;20.10;99.90;;;;;;5086592;28;21121;-94
2022/08/20 01:33:44;;;;;;;8.20;3.87;;;20.00;99.90;;;;;;5085603;28;20612;-95
2022/08/20 01:36:13;;;;;;;4.10;3.80;;;19.90;99.90;;;;;;5084222;28;20664;-94
2022/08/20 01:38:42;;;;;;;5.20;4.50;;;19.80;99.90;;;;;;5085267;28;20621;-95
2022/08/20 01:41:25;;;;;;;8.43;4.10;;;19.70;99.90;;;;;;5088032;28;20628;-95
2022/08/20 01:43:55;;;;;;;4.83;3.20;;;19.60;99.90;;;;;;5087090;28;20620;-94
2022/08/20 01:46:24;;;;;;;4.70;2.80;;;19.50;99.90;;;;;;5092655;28;21017;-94
2022/08/20 01:48:53;;;;;;;3.80;3.50;;;19.50;99.90;;;;;;5091134;28;20663;-95
2022/08/20 01:51:25;;;;;;;4.70;4.30;;;19.50;99.90;;;;;;5091724;28;20632;-95
2022/08/20 01:53:54;;;;;;;3.90;3.60;;;19.40;99.90;;;;;;5091797;28;20646;-95
2022/08/20 01:56:25;;;;;;;3.67;3.37;;;19.50;99.90;;;;;;5092664;28;20622;-95
2022/08/20 01:58:55;;;;;;;5.27;4.77;;;19.50;99.90;;;;;;5093437;28;20635;-95
2022/08/20 02:01:25;;;;;;;4.53;4.23;;;19.40;99.90;;;;;;5092243;28;21050;-96
2022/08/20 02:03:53;;;;;;;3.10;2.90;;;19.40;99.90;;;;;;5091577;28;20639;-95
2022/08/20 02:06:24;;;;;;;5.13;4.83;;;19.30;99.90;;;;;;5092594;28;20624;-94
2022/08/20 02:08:59;;;;;;;4.50;4.10;;;19.50;99.90;;;;;;5075530;28;20656;-93
2022/08/20 02:11:29;;;;;;;4.13;3.73;;;19.30;99.90;;;;;;5092790;28;20623;-95
2022/08/20 02:13:56;;;;;;;5.63;5.23;;;19.30;99.90;;;;;;5093176;28;20604;-95
2022/08/20 02:16:27;;;;;;;4.53;3.57;;;19.20;99.90;;;;;;5091125;28;20750;-95
2022/08/20 02:18:59;;;;;;;3.10;2.90;;;19.20;99.90;;;;;;5090171;28;20627;-95
2022/08/20 02:21:30;;;;;;;3.93;3.70;;;19.50;99.90;;;;;;5092691;28;20624;-94
2022/08/20 02:24:04;;;;;;;6.83;4.30;;;19.60;99.90;;;;;;5092579;28;21240;-94
2022/08/20 02:26:36;;;;;;;4.47;4.10;;;19.60;99.90;;;;;;5088642;28;21197;-95
2022/08/20 02:29:05;;;;;;;4.20;3.90;;;19.50;99.90;;;;;;5091498;28;20660;-96
2022/08/20 02:31:32;;;;;;;4.73;4.33;;;19.40;99.90;;;;;;5094797;28;20632;-95
2022/08/20 02:33:59;;;;;;;4.00;3.00;;;19.50;99.90;;;;;;5089007;28;20620;-95
2022/08/20 02:36:27;;;;;;;4.57;4.17;;;19.40;99.90;;;;;;5088299;28;20627;-94
2022/08/20 02:38:54;;;;;;;3.90;3.33;;;19.40;99.90;;;;;;5092992;28;21204;-95
2022/08/20 02:41:21;;;;;;;3.47;3.17;;;19.20;99.90;;;;;;5092168;28;20639;-95
2022/08/20 02:44:01;;;;;;;4.00;3.70;;;19.20;99.90;;;;;;5092229;28;21198;-96
2022/08/20 02:46:28;;;;;;;4.20;3.87;;;19.30;99.90;;;;;;5091994;28;20618;-96
2022/08/20 02:48:56;;;;;;;4.20;3.80;;;19.30;99.90;;;;;;5092546;28;20650;-95
2022/08/20 02:51:23;;;;;;;4.30;4.00;;;19.20;99.90;;;;;;5088425;28;20635;-95
2022/08/20 02:53:53;;;;;;;7.60;3.30;;;19.20;99.90;;;;;;5092778;28;20619;-95
2022/08/20 02:56:20;;;;;;;3.97;3.67;;;19.10;99.90;;;;;;5092333;28;20627;-95
2022/08/20 02:58:47;;;;;;;2.47;2.37;;;19.10;99.90;;;;;;5092514;28;20624;-96
2022/08/20 03:01:17;;;;;;;5.77;5.00;;;19.20;99.90;;;;;;5090652;28;21193;-95
2022/08/20 03:03:45;;;;;;;3.70;3.47;;;19.20;99.90;;;;;;5092764;28;21177;-95
2022/08/20 03:06:13;;;;;;;4.27;3.97;;;19.30;99.90;;;;;;5092409;28;20650;-96
2022/08/20 03:08:40;;;;;;;4.57;4.27;;;19.30;99.90;;;;;;5092500;28;20770;-95
2022/08/20 03:11:07;;;;;;;5.10;4.70;;;19.30;99.90;;;;;;5093208;28;20636;-95
2022/08/20 03:13:36;;;;;;;4.87;4.57;;;19.30;99.90;;;;;;5093760;28;20623;-96
2022/08/20 03:16:06;;;;;;;4.60;4.30;;;19.20;99.90;;;;;;5094072;28;21226;-95
2022/08/20 03:18:38;;;;;;;5.37;4.00;;;19.10;99.90;;;;;;5095821;28;20647;-96
2022/08/20 03:21:07;;;;;;;3.93;3.63;;;19.00;99.90;;;;;;5100523;28;20778;-95
2022/08/20 03:23:35;;;;;;;4.07;3.70;;;18.90;99.90;;;;;;5092648;28;20735;-95
2022/08/20 03:26:12;;;;;;;3.63;3.43;;;18.80;99.90;;;;;;5091905;28;20648;-94
2022/08/20 03:28:39;;;;;;;3.43;3.23;;;19.10;99.90;;;;;;5091765;28;20747;-94
2022/08/20 03:31:06;;;;;;;4.00;3.70;;;19.40;99.90;;;;;;5091943;28;20624;-95
2022/08/20 03:33:35;;;;;;;2.83;2.63;;;19.50;99.90;;;;;;5089257;28;21257;-96
2022/08/20 03:36:02;;;;;;;3.90;3.60;;;19.60;99.90;;;;;;5090557;28;20653;-96
2022/08/20 03:38:29;;;;;;;3.13;2.93;;;19.70;99.90;;;;;;5092533;28;20989;-95
2022/08/20 03:40:56;;;;;;;3.30;3.00;;;19.60;99.90;;;;;;5089295;28;20636;-95
2022/08/20 03:43:24;;;;;;;4.23;3.93;;;19.40;99.90;;;;;;5091114;28;20992;-95
2022/08/20 03:45:51;;;;;;;3.20;3.00;;;19.30;99.90;;;;;;5087473;28;20671;-95
2022/08/20 03:48:20;;;;;;;4.70;4.40;;;19.40;99.90;;;;;;5090230;28;20720;-95
2022/08/20 03:50:50;;;;;;;3.20;3.00;;;19.40;99.90;;;;;;5074587;28;20624;-95
2022/08/20 03:53:18;;;;;;;2.70;2.50;;;19.30;99.90;;;;;;5090163;28;21200;-96
2022/08/20 03:55:54;;;;;;;2.83;2.63;;;19.50;99.90;;;;;;5092119;28;21225;-95
2022/08/20 03:58:22;;;;;;;2.53;2.33;;;19.60;99.90;;;;;;5084836;28;20727;-95
2022/08/20 04:00:51;;;;;;;2.80;2.40;;;19.40;99.90;;;;;;5091793;28;21213;-95
2022/08/20 04:03:17;;;;;;;4.40;3.20;;;19.40;99.90;;;;;;5090455;28;20644;-96
2022/08/20 04:05:45;;;;;;;2.47;2.37;;;19.30;99.90;;;;;;5090934;28;20659;-96
2022/08/20 04:08:17;;;;;;;2.80;2.60;;;19.20;99.90;;;;;;5087303;28;21211;-95
2022/08/20 04:10:45;;;;;;;4.60;2.87;;;19.10;99.90;;;;;;5091326;28;20620;-95
2022/08/20 04:13:13;;;;;;;3.50;3.30;;;19.00;99.90;;;;;;5084257;28;21048;-95
2022/08/20 04:15:41;;;;;;;7.00;2.90;;;18.90;99.90;;;;;;5091033;28;20648;-95
2022/08/20 04:18:10;;;;;;;2.80;2.40;;;18.90;99.90;;;;;;5091984;28;20639;-95
2022/08/20 04:20:39;;;;;;;3.60;2.80;;;19.00;99.90;;;;;;5090337;28;20624;-96
2022/08/20 04:23:09;;;;;;;2.97;2.77;;;18.90;99.90;;;;;;5093228;28;20732;-96
2022/08/20 04:25:39;;;;;;;4.93;2.77;;;19.00;99.90;;;;;;5093469;28;20655;-96
2022/08/20 04:28:12;;;;;;;5.50;2.43;;;19.00;99.90;;;;;;5094184;28;21234;-96
2022/08/20 04:30:41;;;;;;;3.77;3.47;;;19.00;99.90;;;;;;5092940;28;20636;-95
2022/08/20 04:33:08;;;;;;;3.10;2.90;;;19.00;99.90;;;;;;5093346;28;20638;-96
2022/08/20 04:35:37;;;;;;;2.97;2.77;;;18.90;99.90;;;;;;5092859;27;20667;-96
2022/08/20 04:38:07;;;;;;;2.63;2.37;;;18.90;99.90;;;;;;5093453;28;21061;-96
2022/08/20 04:40:56;;;;;;;4.63;2.50;;;19.10;99.90;;;;;;5094489;28;20736;-96
2022/08/20 04:43:29;;;;;;;2.93;2.73;;;19.40;99.90;;;;;;5093898;28;20733;-96
2022/08/20 04:45:58;;;;;;;2.93;2.73;;;19.50;99.90;;;;;;5094807;28;20658;-96
2022/08/20 04:48:27;;;;;;;3.50;3.20;;;19.50;99.90;;;;;;5095101;28;20683;-96
2022/08/20 04:51:01;;;;;;;3.03;2.83;;;19.40;99.90;;;;;;5096710;28;21213;-96
2022/08/20 04:53:29;;;;;;;3.70;3.50;;;19.50;99.90;;;;;;5088779;28;21209;-96
2022/08/20 04:55:58;;;;;;;3.40;3.10;;;19.50;99.90;;;;;;5090326;28;20644;-95
2022/08/20 04:58:31;;;;;;;4.10;3.67;;;19.40;99.90;;;;;;5090431;28;20697;-96
2022/08/20 05:01:01;;;;;;;3.90;3.60;;;19.30;99.90;;;;;;5091331;28;20628;-96
2022/08/20 05:03:29;;;;;;;2.90;2.70;;;19.30;99.90;;;;;;5091969;28;20727;-96
2022/08/20 05:05:57;;;;;;;2.63;2.53;;;19.40;99.90;;;;;;5096997;28;20655;-96
2022/08/20 05:08:25;;;;;;;3.80;2.73;;;19.50;99.90;;;;;;5096533;28;20666;-96
2022/08/20 05:10:53;;;;;;;3.23;2.93;;;19.50;99.90;;;;;;5091798;28;21049;-94
2022/08/20 05:13:20;;;;;;;3.50;3.20;;;19.50;99.90;;;;;;5088375;28;20628;-91
2022/08/20 05:15:49;;;;;;;3.10;2.90;;;19.50;99.90;;;;;;5087826;28;20678;-92
2022/08/20 05:18:18;;;;;;;2.90;2.70;;;19.70;99.90;;;;;;5088067;28;20636;-92
2022/08/20 05:20:46;;;;;;;2.73;2.00;;;19.60;99.90;;;;;;5091828;28;20634;-92
2022/08/20 05:23:15;;;;;;;3.33;3.13;;;19.60;99.90;;;;;;5092943;28;20707;-92
2022/08/20 05:25:43;;;;;;;3.00;2.23;;;19.40;99.90;;;;;;5088929;28;20999;-92
2022/08/20 05:28:16;;;;;;;2.70;2.50;;;19.40;99.90;;;;;;5089101;28;20616;-92
2022/08/20 05:30:45;;;;;;;3.47;3.17;;;19.30;99.90;;;;;;5089636;28;20707;-93
2022/08/20 05:33:15;;;;;;;3.10;2.73;;;19.30;99.90;;;;;;5088089;28;20635;-93
2022/08/20 05:35:42;;;;;;;3.70;3.40;;;19.20;99.90;;;;;;5088381;28;20656;-92
2022/08/20 05:38:12;;;;;;;2.93;2.73;;;19.20;99.90;;;;;;5091041;28;21220;-93
2022/08/20 05:40:40;;;;;;;3.07;2.83;;;19.20;99.90;;;;;;5090013;28;20647;-92
2022/08/20 05:43:07;;;;;;;3.37;3.00;;;19.10;99.90;;;;;;5090468;28;20765;-92
2022/08/20 05:45:38;;;;;;;4.10;3.00;;;19.10;99.90;;;;;;5090636;28;21206;-93
2022/08/20 05:48:06;;;;;;;7.60;3.80;;;18.90;99.90;;;;;;5092545;28;21184;-94
2022/08/20 05:50:35;;;;;;;5.37;3.43;;;18.80;99.90;;;;;;5093475;28;21190;-94
2022/08/20 05:53:02;;;;;;;4.87;3.40;;;18.70;99.90;;;;;;5097775;28;20612;-94
2022/08/20 05:55:29;;;;;;;3.70;3.40;;;18.80;99.90;;;;;;5092236;28;21213;-94
2022/08/20 05:57:57;;;;;;;3.80;3.47;;;18.90;99.90;;;;;;5092705;28;20636;-93
2022/08/20 06:00:25;;;;;;;5.60;3.77;;;19.00;99.90;;;;;;5092755;28;20990;-93
2022/08/20 06:05:38;;;;;;;3.50;3.20;;;18.80;99.90;;;;;;5091906;28;20705;-93
2022/08/20 06:08:06;;;;;;;3.67;3.40;;;18.90;99.90;;;;;;5092005;28;20628;-92
2022/08/20 06:10:32;;;;;;;4.20;3.90;;;18.90;99.90;;;;;;5090631;28;20761;-93
2022/08/20 06:13:01;;;;;;;4.00;3.80;;;18.90;99.90;;;;;;5091113;28;21154;-93
2022/08/20 06:15:28;;;;;;;4.33;3.93;;;19.00;99.90;;;;;;5092074;27;20668;-93
2022/08/20 06:17:56;;;;;;;3.37;3.17;;;19.00;99.90;;;;;;5091456;28;20643;-92
2022/08/20 06:20:23;;;;;;;3.90;3.50;;;19.00;99.90;;;;;;5090472;28;20635;-93
2022/08/20 06:22:53;;;;;;;3.97;3.33;;;19.00;99.90;;;;;;5092351;28;20631;-93
2022/08/20 06:25:21;;;;;;;3.50;3.20;;;19.20;99.90;;;;;;5087333;28;20655;-93
2022/08/20 06:27:48;;;;;;;3.63;3.33;;;19.30;99.90;;;;;;5090664;28;20735;-93
2022/08/20 06:30:16;;;;;;;3.60;3.30;;;19.30;99.90;;;;;;5087581;28;21213;-94
2022/08/20 06:32:44;;;;;;;3.53;3.23;;;19.40;99.90;;;;;;5087911;28;20681;-94
2022/08/20 06:35:14;;;;;;;6.77;3.73;;;19.50;99.90;;;;;;5091038;28;20668;-93
2022/08/20 06:37:41;;;;;;;3.20;2.90;;;19.40;99.90;;;;;;5091714;28;20624;-94
2022/08/20 06:40:13;;;;;;;3.07;2.87;;;19.50;99.90;;;;;;5090806;28;20638;-94
2022/08/20 06:42:42;;;;;;;4.07;3.00;;;19.40;99.90;;;;;;5091142;28;21123;-95
2022/08/20 06:45:10;;;;;;;3.47;3.17;;;19.40;99.90;;;;;;5090593;28;20655;-94
2022/08/20 06:47:40;;;;;;;5.87;3.20;;;19.40;99.90;;;;;;5090490;28;20632;-94
2022/08/20 06:50:08;;;;;;;8.00;2.90;;;19.50;99.90;;;;;;5090433;28;21022;-94
2022/08/20 06:52:38;;;;;;;4.03;3.73;;;19.50;99.90;;;;;;5091430;28;20632;-94
2022/08/20 06:55:06;;;;;;;3.00;2.80;;;19.60;99.90;;;;;;5089437;28;21221;-94
2022/08/20 06:57:35;;;;;;;6.07;3.40;;;19.40;99.90;;;;;;5084431;28;20768;-93
2022/08/20 07:00:02;;;;;;;3.73;3.40;;;19.30;99.90;;;;;;5087436;28;20632;-93
2022/08/20 07:02:30;;;;;;;3.70;3.50;;;19.50;99.90;;;;;;5087516;28;21270;-92
2022/08/20 07:04:57;;;;;;;4.00;3.50;;;19.50;99.90;;;;;;5084924;28;20648;-93
2022/08/20 07:07:23;;;;;;;2.70;2.50;;;19.50;99.90;;;;;;5088986;28;20656;-94
2022/08/20 07:09:51;;;;;;;3.60;3.37;;;19.80;99.90;;;;;;5086189;28;20731;-94
2022/08/20 07:12:17;;;;;;;3.50;2.93;;;20.00;99.90;;;;;;5091185;28;20638;-94
2022/08/20 07:14:46;;;;;;;3.43;2.90;;;20.10;99.90;;;;;;5089307;28;20628;-94
2022/08/20 07:17:13;;;;;;;3.40;3.10;;;20.30;99.90;;;;;;5083130;28;20729;-94
2022/08/20 07:19:40;;;;;;;3.57;3.30;;;20.40;99.90;;;;;;5086452;28;20715;-94
2022/08/20 07:22:07;;;;;;;3.10;2.90;;;20.50;99.90;;;;;;5089446;28;20937;-94
2022/08/20 07:24:34;;;;;;;3.40;3.10;;;20.70;99.90;;;;;;5087668;28;21112;-94
2022/08/20 07:27:01;;;;;;;3.93;3.63;;;20.60;99.90;;;;;;5089212;28;20655;-94
2022/08/20 07:32:33;;;;;;;2.70;2.50;;;20.70;99.90;;;;;;5091824;28;20660;-94
2022/08/20 07:32:35;;;;;;;3.57;3.27;;;20.80;99.90;;;;;;5089803;28;20600;-94
2022/08/20 07:35:03;;;;;;;3.17;2.97;;;20.80;99.90;;;;;;5085752;28;20667;-94
2022/08/20 07:37:30;;;;;;;3.40;3.20;;;20.90;99.90;;;;;;5089908;28;20660;-94
2022/08/20 07:40:00;;;;;;;3.60;3.30;;;21.00;99.90;;;;;;5089999;28;20632;-95
2022/08/20 07:42:27;;;;;;;4.93;3.40;;;20.90;99.90;;;;;;5088873;28;20685;-93
2022/08/20 07:44:54;;;;;;;3.10;2.90;;;20.70;99.90;;;;;;5089528;28;20693;-94
2022/08/20 07:47:22;;;;;;;4.23;3.83;;;20.70;99.90;;;;;;5091425;28;20671;-94
2022/08/20 07:49:56;;;;;;;3.83;3.53;;;20.70;99.90;;;;;;5090918;28;20762;-93
2022/08/20 07:52:23;;;;;;;3.97;3.67;;;20.80;99.90;;;;;;5091602;28;21195;-95
2022/08/20 07:54:50;;;;;;;4.97;3.60;;;20.80;99.90;;;;;;5091232;28;20639;-94
2022/08/20 07:57:18;;;;;;;4.03;3.50;;;20.80;99.90;;;;;;5090933;28;21295;-94
2022/08/20 07:59:47;;;;;;;4.50;3.40;;;20.90;99.90;;;;;;5090640;28;20739;-94
2022/08/20 08:02:15;;;;;;;3.73;3.43;;;21.00;99.90;;;;;;5090361;28;20640;-93
2022/08/20 08:04:44;;;;;;;3.73;3.43;;;21.00;99.90;;;;;;5082356;28;20646;-94
2022/08/20 08:07:11;;;;;;;4.13;3.83;;;21.00;99.90;;;;;;5084963;28;20667;-94
2022/08/20 08:09:39;;;;;;;5.40;4.90;;;20.90;99.90;;;;;;5091323;28;20728;-93
2022/08/20 08:12:06;;;;;;;3.53;3.23;;;21.00;99.90;;;;;;5091381;28;20639;-94
2022/08/20 08:14:34;;;;;;;5.97;4.67;;;21.00;99.90;;;;;;5091782;28;20639;-94
2022/08/20 08:17:04;;;;;;;6.33;3.80;;;21.10;99.90;;;;;;5096525;28;20666;-94
2022/08/20 08:19:37;;;;;;;3.80;3.60;;;21.20;99.90;;;;;;5095065;28;20640;-95
2022/08/20 08:22:10;;;;;;;3.57;3.27;;;21.40;99.90;;;;;;5093502;28;20650;-94
2022/08/20 08:24:37;;;;;;;4.03;3.73;;;21.50;99.90;;;;;;5106525;28;20608;-95
2022/08/20 08:27:06;;;;;;;4.13;3.73;;;21.50;99.90;;;;;;5113618;28;20644;-94
2022/08/20 08:29:34;;;;;;;4.30;3.90;;;21.50;99.90;;;;;;5113919;28;20636;-93
2022/08/20 08:32:02;;;;;;;3.27;3.03;;;21.60;99.90;;;;;;5109589;28;20615;-94
2022/08/20 08:34:29;;;;;;;11.13;4.10;;;21.70;99.90;;;;;;5113826;28;20646;-95
2022/08/20 08:36:57;;;;;;;4.10;3.57;;;22.10;99.90;;;;;;5104583;28;20640;-95
2022/08/20 08:39:25;;;;;;;5.07;2.90;;;22.10;99.90;;;;;;5105036;28;20940;-92
2022/08/20 08:41:56;;;;;;;3.67;3.20;;;22.20;99.90;;;;;;5102094;28;20651;-93
2022/08/20 08:44:30;;;;;;;4.90;4.10;;;22.20;99.90;;;;;;5090668;28;21069;-92
2022/08/20 08:47:01;;;;;;;3.20;3.00;;;22.30;99.90;;;;;;5088350;28;20642;-92
2022/08/20 08:49:33;;;;;;;3.50;3.20;;;22.40;99.90;;;;;;5087601;28;20659;-92
2022/08/20 08:52:06;;;;;;;6.63;3.60;;;22.80;99.90;;;;;;5088161;28;20626;-92
2022/08/20 08:54:36;;;;;;;4.50;2.97;;;22.70;99.90;;;;;;5087942;28;20727;-93
2022/08/20 08:57:10;;;;;;;3.97;3.67;;;22.50;99.90;;;;;;5087659;28;20740;-92
2022/08/20 08:59:38;;;;;;;3.47;3.27;;;22.60;99.90;;;;;;5085551;28;20627;-92
2022/08/20 09:02:06;;;;;;;4.30;3.97;;;22.70;99.90;;;;;;5086786;28;20640;-91
2022/08/20 09:04:36;;;;;;;3.97;3.67;;;22.90;99.90;;;;;;5084546;28;21816;-94
2022/08/20 09:07:04;;;;;;;3.80;3.50;;;22.80;99.90;;;;;;5085941;28;20680;-92
2022/08/20 09:09:36;;;;;;;5.87;3.43;;;22.80;99.90;;;;;;5091426;28;20667;-92
2022/08/20 09:12:06;;;;;;;3.80;3.50;;;22.60;99.90;;;;;;5087977;28;20647;-94
2022/08/20 09:14:33;;;;;;;3.80;3.47;;;22.80;99.90;;;;;;5089095;28;20948;-93
2022/08/20 09:17:00;;;;;;;2.97;2.77;;;22.80;99.90;;;;;;5089144;28;20812;-92
2022/08/20 09:19:27;;;;;;;4.03;2.80;;;22.80;99.90;;;;;;5089476;28;20632;-92
2022/08/20 09:21:54;;;;;;;3.43;3.13;;;22.80;99.90;;;;;;5089338;28;20738;-93
2022/08/20 09:24:55;;;;;;;5.53;2.70;;;22.80;99.90;;;;;;5088479;28;20628;-90
2022/08/20 09:27:22;;;;;;;5.70;3.17;;;22.60;99.90;;;;;;5083867;28;20646;-89
2022/08/20 09:29:49;;;;;;;3.80;2.60;;;22.20;99.90;;;;;;5084133;28;21186;-89
2022/08/20 09:32:19;;;;;;;4.57;2.80;;;22.20;99.90;;;;;;5085871;28;20660;-89
2022/08/20 09:34:47;;;;;;;6.77;2.90;;;22.40;99.90;;;;;;5082879;28;20628;-89
2022/08/20 09:37:17;;;;;;;7.53;3.80;;;22.50;99.90;;;;;;5087480;28;20655;-91
2022/08/20 09:39:45;;;;;;;6.57;4.20;;;22.50;99.90;;;;;;5085237;28;20648;-91
2022/08/20 09:42:18;;;;;;;5.87;4.17;;;22.30;99.90;;;;;;5086037;28;20635;-91
2022/08/20 09:44:45;;;;;;;4.07;3.33;;;22.20;99.90;;;;;;5085736;28;20666;-90
2022/08/20 09:47:14;;;;;;;3.63;3.33;;;21.90;99.90;;;;;;5084558;28;20727;-91
2022/08/20 09:49:41;;;;;;;6.47;5.97;;;21.80;99.90;;;;;;5087046;28;20612;-90
2022/08/20 09:52:10;;;;;;;4.60;3.90;;;21.80;99.90;;;;;;5088617;28;20723;-88
2022/08/20 09:54:39;;;;;;;7.63;3.80;;;21.60;99.90;;;;;;5090827;28;20680;-88
2022/08/20 09:57:09;;;;;;;6.20;3.63;;;21.30;99.90;;;;;;5087739;28;20620;-88
2022/08/20 09:59:38;;;;;;;5.97;4.80;;;20.90;99.90;;;;;;5087637;28;21158;-88
2022/08/20 10:02:05;;;;;;;3.97;3.67;;;20.80;99.90;;;;;;5087672;28;20644;-88
2022/08/20 10:04:32;;;;;;;4.00;3.03;;;21.00;99.90;;;;;;5083749;28;20695;-88
2022/08/20 10:06:59;;;;;;;2.77;2.20;;;21.30;99.90;;;;;;5088426;28;20631;-89
2022/08/20 10:09:26;;;;;;;4.43;2.80;;;21.60;99.90;;;;;;5090829;28;20660;-89
2022/08/20 10:11:53;;;;;;;5.50;4.40;;;21.90;99.90;;;;;;5090930;28;20667;-89
2022/08/20 10:14:20;;;;;;;4.27;3.47;;;22.10;99.90;;;;;;5088978;28;20670;-89
2022/08/20 10:16:55;;;;;;;5.60;3.40;;;22.20;99.90;;;;;;5089989;28;20680;-89
2022/08/20 10:19:22;;;;;;;2.40;2.30;;;22.30;99.90;;;;;;5076820;28;21034;-90
2022/08/20 10:21:52;;;;;;;4.23;3.07;;;22.60;99.90;;;;;;5081790;28;20635;-89
2022/08/20 10:24:19;;;;;;;2.83;2.63;;;22.70;99.90;;;;;;5086331;28;20626;-89
2022/08/20 10:26:48;;;;;;;2.97;2.80;;;22.80;99.90;;;;;;5081168;28;20762;-89
2022/08/20 10:29:15;;;;;;;2.37;1.80;;;22.90;99.90;;;;;;5082143;28;20636;-89
2022/08/20 10:31:42;;;;;;;2.00;1.80;;;22.80;99.90;;;;;;5085580;28;20664;-91
2022/08/20 10:34:10;;;;;;;1.90;1.70;;;22.70;99.90;;;;;;5082945;28;21131;-91
2022/08/20 10:36:37;;;;;;;1.00;0.90;;;22.70;99.90;;;;;;5087954;28;20644;-92
2022/08/20 10:39:04;;;;;;;3.93;1.27;;;22.70;99.90;;;;;;5089246;28;20642;-91
2022/08/20 10:41:31;;;;;;;1.53;1.30;;;22.60;99.90;;;;;;5086368;28;20636;-92
2022/08/20 10:43:58;;;;;;;1.00;0.90;;;22.60;99.90;;;;;;5091719;28;20604;-92
2022/08/20 10:46:32;;;;;;;1.40;1.20;;;22.50;99.90;;;;;;5085488;28;20675;-92
2022/08/20 10:48:59;;;;;;;1.47;1.37;;;22.40;99.90;;;;;;5091691;28;20628;-92
2022/08/20 10:51:28;;;;;;;0.80;0.80;;;22.50;99.90;;;;;;5091582;28;20698;-92
2022/08/20 10:53:55;;;;;;;1.10;0.70;;;22.50;99.90;;;;;;5089553;28;20616;-91
2022/08/20 10:56:22;;;;;;;0.80;0.80;;;22.40;99.90;;;;;;5090652;28;20648;-91
2022/08/20 10:58:49;;;;;;;3.47;0.77;;;22.40;99.90;;;;;;5091005;28;21134;-91
2022/08/20 11:01:16;;;;;;;2.07;0.60;;;22.30;99.90;;;;;;5092033;28;20585;-91
2022/08/20 11:03:43;;;;;;;1.97;0.90;;;22.30;99.90;;;;;;5091860;28;20647;-92
2022/08/20 11:06:10;;;;;;;0.60;0.60;;;22.40;99.90;;;;;;5090106;28;20743;-91
2022/08/20 11:08:38;;;;;;;0.50;0.50;;;22.60;99.90;;;;;;5091840;28;20647;-91
2022/08/20 11:11:06;;;;;;;0.60;0.60;;;22.60;99.90;;;;;;5083843;28;20643;-90
2022/08/20 11:13:33;;;;;;;0.50;0.50;;;22.60;99.90;;;;;;5090917;28;20623;-91
2022/08/20 11:16:01;;;;;;;1.40;1.30;;;22.30;99.90;;;;;;5089889;28;20730;-91
2022/08/20 11:18:31;;;;;;;0.70;0.70;;;22.20;99.90;;;;;;5091430;28;20727;-91
2022/08/20 11:20:58;;;;;;;5.47;1.20;;;22.20;99.90;;;;;;5091314;28;20709;-94
2022/08/20 11:23:26;;;;;;;0.93;0.70;;;22.10;99.90;;;;;;5090199;28;20620;-90
2022/08/20 11:25:55;;;;;;;0.90;0.90;;;22.20;99.90;;;;;;5089310;28;20639;-90
2022/08/20 11:28:22;;;;;;;1.10;1.00;;;22.10;99.90;;;;;;5091744;28;21197;-92
2022/08/20 11:30:49;;;;;;;0.93;0.93;;;22.20;99.90;;;;;;5091736;28;20672;-92
2022/08/20 11:33:17;;;;;;;1.00;0.90;;;22.20;99.90;;;;;;5082516;28;20724;-93
2022/08/20 11:35:46;;;;;;;0.80;0.80;;;22.30;99.90;;;;;;5087568;28;20740;-91
2022/08/20 11:38:13;;;;;;;0.50;0.50;;;22.20;99.90;;;;;;5091069;28;20660;-92
2022/08/20 11:40:40;;;;;;;0.60;0.60;;;22.20;99.90;;;;;;5084097;28;20656;-93
2022/08/20 11:43:08;;;;;;;0.63;0.63;;;22.20;99.90;;;;;;5086956;28;20828;-93
2022/08/20 11:45:36;;;;;;;0.77;0.77;;;22.20;99.90;;;;;;5103201;28;20620;-91
2022/08/20 11:48:04;;;;;;;0.80;0.63;;;22.20;99.90;;;;;;5109600;28;20628;-91
2022/08/20 11:50:31;;;;;;;1.50;0.50;;;22.30;99.90;;;;;;5106332;28;21164;-92
2022/08/20 11:52:58;;;;;;;0.83;0.60;;;22.30;99.90;;;;;;5111538;28;20644;-91
2022/08/20 11:55:24;;;;;;;0.80;0.80;;;22.40;99.90;;;;;;5110680;28;20699;-91
2022/08/20 11:57:51;;;;;;;2.10;0.60;;;22.40;99.90;;;;;;5111567;28;20688;-91
2022/08/20 12:00:23;;;;;;;1.57;1.07;;;22.40;99.90;;;;;;5110744;28;20664;-91
2022/08/20 12:02:57;;;;;;;0.80;0.80;;;22.40;99.90;;;;;;5109187;28;20644;-92
2022/08/20 12:05:26;;;;;;;0.90;0.90;;;22.40;99.90;;;;;;5107933;28;20634;-91
2022/08/20 12:07:52;;;;;;;0.70;0.70;;;22.40;99.90;;;;;;5110568;28;20623;-91
2022/08/20 12:10:19;;;;;;;1.27;0.90;;;22.50;99.90;;;;;;5112191;28;20640;-89
2022/08/20 12:12:53;;;;;;;1.03;0.60;;;22.60;99.90;;;;;;5114174;28;20623;-92
2022/08/20 12:15:21;;;;;;;0.50;0.50;;;22.60;99.90;;;;;;5096343;28;20622;-92
2022/08/20 12:17:51;;;;;;;0.93;0.83;;;22.60;99.90;;;;;;5094902;28;20632;-91
2022/08/20 12:20:19;;;;;;;0.60;0.50;;;22.60;99.90;;;;;;5105325;28;20656;-91
2022/08/20 12:22:46;;;;;;;0.67;0.60;;;22.70;99.90;;;;;;5109955;28;20616;-92
2022/08/20 12:25:15;;;;;;;1.00;0.50;;;22.80;99.90;;;;;;5101805;28;20616;-91
2022/08/20 12:27:42;;;;;;;0.67;0.63;;;22.90;99.90;;;;;;5093424;28;20624;-91
2022/08/20 12:30:12;;;;;;;1.00;0.70;;;22.90;99.90;;;;;;5087843;28;20747;-91
2022/08/20 12:32:41;;;;;;;0.43;0.43;;;23.00;99.90;;;;;;5092454;28;20706;-91
2022/08/20 12:35:10;;;;;;;1.00;1.00;;;23.00;99.90;;;;;;5090267;28;20620;-92
2022/08/20 12:37:38;;;;;;;0.50;0.50;;;23.00;99.90;;;;;;5091241;28;20624;-91
2022/08/20 12:40:09;;;;;;;0.87;0.80;;;23.00;99.90;;;;;;5088992;28;20674;-91
2022/08/20 12:42:37;;;;;;;0.43;0.43;;;23.00;99.90;;;;;;5088720;28;20747;-92
2022/08/20 12:45:04;;;;;;;0.60;0.50;;;23.10;99.90;;;;;;5089318;28;20664;-92
2022/08/20 12:47:33;;;;;;;0.93;0.77;;;23.20;99.90;;;;;;5088589;28;21085;-91
2022/08/20 12:50:05;;;;;;;0.70;0.70;;;23.30;99.90;;;;;;5089374;28;21019;-91
2022/08/20 12:52:33;;;;;;;0.97;0.50;;;23.30;99.90;;;;;;5085497;28;20675;-92
2022/08/20 12:55:02;;;;;;;0.50;0.50;;;23.30;99.90;;;;;;5088334;28;20718;-90
2022/08/20 12:57:32;;;;;;;1.97;0.60;;;23.20;99.90;;;;;;5090903;28;20689;-92
2022/08/20 13:00:01;;;;;;;0.63;0.63;;;23.30;99.90;;;;;;5085523;28;20649;-91